Battleford, Canada
Current Conditions -  °F | °C
As of 12:00 PM on Thursday 30 Oct 2014 (Local Time) from CYQW Reporting Station
Overcast Overcast  
Wind Chill: 17°   Ceiling: 1000
Heat Index: 28°   Visibility: 9mi
Dew Point: 27°   Wind: 14mph
Humidity: 93%   Direction: 140°SE
Pressure: 30.46"   Gusts: 20mph
Location:  52.77°N, 108.3°W
Report Text: CYQW 301800Z AUTO 14012G17KT 9SM OVC010 M02/M03 A3046 RMK SLP344
Loading
Personal Weather Stations






























Interactive Weather Map
Tropical Storm Tracking
New forecast layout! Learn more

10-Day Weather Forecast

Advertisements
Track Severe Weather on mobile